createdAt,value
2017-03-12T00:00:15.159Z,17.05
2017-03-12T00:00:55.670Z,16.95
2017-03-12T00:01:36.579Z,16.86
2017-03-12T00:02:17.078Z,17.05
2017-03-12T00:02:57.567Z,16.96
2017-03-12T00:03:38.058Z,16.96
2017-03-12T00:04:18.557Z,17.05
2017-03-12T00:04:59.061Z,17.05
2017-03-12T00:05:39.562Z,16.96
2017-03-12T00:06:20.067Z,16.85
2017-03-12T00:07:00.563Z,16.95
2017-03-12T00:07:41.068Z,16.85
2017-03-12T00:08:21.555Z,16.85
2017-03-12T00:09:02.073Z,16.85
2017-03-12T00:09:42.555Z,16.86
2017-03-12T00:10:23.050Z,16.75
2017-03-12T00:11:03.547Z,16.75
2017-03-12T00:11:44.019Z,16.95
2017-03-12T00:12:24.509Z,17.05
2017-03-12T00:13:05.002Z,16.95
2017-03-12T00:13:45.496Z,16.85
2017-03-12T00:14:25.983Z,16.95
2017-03-12T00:15:06.459Z,16.95
2017-03-12T00:15:46.962Z,17.05
2017-03-12T00:16:27.480Z,16.95
2017-03-12T00:17:07.972Z,16.95
2017-03-12T00:17:48.453Z,17.05
2017-03-12T00:18:28.943Z,16.95
2017-03-12T00:19:09.449Z,16.95
2017-03-12T00:19:49.940Z,16.95
2017-03-12T00:20:30.437Z,17.05
2017-03-12T00:21:10.953Z,16.85
2017-03-12T00:21:51.441Z,17.05
2017-03-12T00:22:31.954Z,16.86
2017-03-12T00:23:12.417Z,16.95
2017-03-12T00:23:52.907Z,16.96
2017-03-12T00:24:33.394Z,16.85
2017-03-12T00:25:13.891Z,16.85
2017-03-12T00:25:54.360Z,16.95
2017-03-12T00:26:34.860Z,16.96
2017-03-12T00:27:15.355Z,17.05
2017-03-12T00:27:55.855Z,16.95
2017-03-12T00:28:36.354Z,17.05
2017-03-12T00:29:16.845Z,16.95
2017-03-12T00:29:57.335Z,16.96
2017-03-12T00:30:37.857Z,16.95
2017-03-12T00:31:18.308Z,16.95
2017-03-12T00:31:58.797Z,16.95
2017-03-12T00:32:39.302Z,16.96
2017-03-12T00:33:19.807Z,16.95
2017-03-12T00:34:00.307Z,16.95
2017-03-12T00:34:40.790Z,16.95
2017-03-12T00:35:21.288Z,17.05
2017-03-12T00:36:01.779Z,16.95
2017-03-12T00:36:42.268Z,17.05
2017-03-12T00:37:22.764Z,17.05
2017-03-12T00:38:03.255Z,16.95
2017-03-12T00:38:43.746Z,16.95
2017-03-12T00:39:24.902Z,17.14
2017-03-12T00:40:05.397Z,16.95
2017-03-12T00:40:45.895Z,17.05
2017-03-12T00:41:26.387Z,16.95
2017-03-12T00:42:06.878Z,17.05
2017-03-12T00:42:47.362Z,16.95
2017-03-12T00:43:27.841Z,16.95
2017-03-12T00:44:08.345Z,17.05
2017-03-12T00:44:48.830Z,16.95
2017-03-12T00:45:29.339Z,17.05
2017-03-12T00:46:09.827Z,17.05
2017-03-12T00:46:50.323Z,16.95
2017-03-12T00:47:30.807Z,16.95
2017-03-12T00:48:11.293Z,17.05
2017-03-12T00:48:51.795Z,17.05
2017-03-12T00:49:32.280Z,16.95
2017-03-12T00:50:12.797Z,17.05
2017-03-12T00:50:53.279Z,16.95
2017-03-12T00:51:33.773Z,17.05
2017-03-12T00:52:14.267Z,16.95
2017-03-12T00:52:55.399Z,16.95
2017-03-12T00:53:35.884Z,16.95
2017-03-12T00:54:16.380Z,16.95
2017-03-12T00:54:56.860Z,16.95
2017-03-12T00:55:37.358Z,16.95
2017-03-12T00:56:17.862Z,16.95
2017-03-12T00:56:58.347Z,16.95
2017-03-12T00:57:38.984Z,16.95
2017-03-12T00:58:19.496Z,16.95
2017-03-12T00:58:59.986Z,16.95
2017-03-12T00:59:40.482Z,16.95
2017-03-12T01:00:20.983Z,17.05
2017-03-12T01:01:01.478Z,17.05
2017-03-12T01:01:41.961Z,17.05
2017-03-12T01:02:22.476Z,16.95
2017-03-12T01:03:02.938Z,17.05
2017-03-12T01:03:43.425Z,16.95
2017-03-12T01:04:23.938Z,17.05
2017-03-12T01:05:04.431Z,17.05
2017-03-12T01:05:44.922Z,17.05
2017-03-12T01:06:25.405Z,16.85
2017-03-12T01:07:05.887Z,16.85
2017-03-12T01:07:46.381Z,16.95
2017-03-12T01:08:26.871Z,17.05
2017-03-12T01:09:07.370Z,17.05
2017-03-12T01:09:47.861Z,17.05
2017-03-12T01:10:28.348Z,16.95
2017-03-12T01:11:08.848Z,16.95
2017-03-12T01:11:49.321Z,16.95
2017-03-12T01:12:30.253Z,17.05
2017-03-12T01:13:10.772Z,16.95
2017-03-12T01:13:51.250Z,17.05
2017-03-12T01:14:31.739Z,16.95
2017-03-12T01:15:12.234Z,16.95
2017-03-12T01:15:52.725Z,16.95
2017-03-12T01:16:33.223Z,17.05
2017-03-12T01:17:13.721Z,16.95
2017-03-12T01:17:54.217Z,16.95
2017-03-12T01:18:34.727Z,16.95
2017-03-12T01:19:15.221Z,17.05
2017-03-12T01:19:55.729Z,17.05
2017-03-12T01:20:36.237Z,16.95
2017-03-12T01:21:16.723Z,16.85
2017-03-12T01:21:57.230Z,16.95
2017-03-12T01:22:37.716Z,16.95
2017-03-12T01:23:18.198Z,16.95
2017-03-12T01:23:59.329Z,16.95
2017-03-12T01:24:39.806Z,16.95
2017-03-12T01:25:20.306Z,16.95
2017-03-12T01:26:00.792Z,17.05
2017-03-12T01:26:41.289Z,16.95
2017-03-12T01:27:21.774Z,17.05
2017-03-12T01:28:02.576Z,16.95
2017-03-12T01:28:43.045Z,17.05
2017-03-12T01:29:23.532Z,16.85
2017-03-12T01:30:04.047Z,16.95
2017-03-12T01:30:44.539Z,17.05
2017-03-12T01:31:25.037Z,16.95
2017-03-12T01:32:05.529Z,16.85
2017-03-12T01:32:46.012Z,16.95
2017-03-12T01:33:26.502Z,16.95
2017-03-12T01:34:06.993Z,17.05
2017-03-12T01:34:47.488Z,16.95
2017-03-12T01:35:27.967Z,16.95
2017-03-12T01:36:08.469Z,16.95
2017-03-12T01:36:48.970Z,16.95
2017-03-12T01:37:29.482Z,16.95
2017-03-12T01:38:09.975Z,16.85
2017-03-12T01:38:50.466Z,17.05
2017-03-12T01:39:30.950Z,16.95
2017-03-12T01:40:11.434Z,17.05
2017-03-12T01:40:51.931Z,16.95
2017-03-12T01:41:32.411Z,16.95
2017-03-12T01:42:13.545Z,17.05
2017-03-12T01:42:54.026Z,17.24
2017-03-12T01:43:34.545Z,16.95
2017-03-12T01:44:15.028Z,16.95
2017-03-12T01:44:55.526Z,16.95
2017-03-12T01:45:36.023Z,16.95
2017-03-12T01:46:16.496Z,16.95
2017-03-12T01:46:56.992Z,17.05
2017-03-12T01:47:37.474Z,17.05
2017-03-12T01:48:17.960Z,16.95
2017-03-12T01:48:58.448Z,16.95
2017-03-12T01:49:38.929Z,17.05
2017-03-12T01:50:19.432Z,17.05
2017-03-12T01:50:59.922Z,16.95
2017-03-12T01:51:40.444Z,16.95
2017-03-12T01:52:20.927Z,17.05
2017-03-12T01:53:01.434Z,16.95
2017-03-12T01:53:41.922Z,16.85
2017-03-12T01:54:22.414Z,16.85
2017-03-12T01:55:02.921Z,17.05
2017-03-12T01:55:43.434Z,17.05
2017-03-12T01:56:23.917Z,16.75
2017-03-12T01:57:04.408Z,16.85
2017-03-12T01:57:44.892Z,16.75
2017-03-12T01:58:25.391Z,16.75
2017-03-12T01:59:05.903Z,16.95
2017-03-12T01:59:46.389Z,16.85
2017-03-12T02:00:26.888Z,16.85
2017-03-12T02:01:07.388Z,16.85
2017-03-12T02:01:47.878Z,16.95
2017-03-12T02:02:28.367Z,16.95
2017-03-12T02:03:08.869Z,16.85
2017-03-12T02:03:49.361Z,16.75
2017-03-12T02:04:29.852Z,16.85
2017-03-12T02:05:10.348Z,16.95
2017-03-12T02:05:50.841Z,16.95
2017-03-12T02:06:31.322Z,16.95
2017-03-12T02:07:11.801Z,16.85
2017-03-12T02:07:52.301Z,16.85
2017-03-12T02:08:32.780Z,16.95
2017-03-12T02:09:13.279Z,16.95
2017-03-12T02:09:53.763Z,16.95
2017-03-12T02:10:34.251Z,16.95
2017-03-12T02:11:14.746Z,16.85
2017-03-12T02:11:55.224Z,16.85
2017-03-12T02:12:35.700Z,17.05
2017-03-12T02:13:16.253Z,17.14
2017-03-12T02:13:57.253Z,16.95
2017-03-12T02:14:37.756Z,16.95
2017-03-12T02:15:18.271Z,16.95
2017-03-12T02:15:58.720Z,16.95
2017-03-12T02:16:39.208Z,16.95
2017-03-12T02:17:19.726Z,16.75
2017-03-12T02:18:00.232Z,16.95
2017-03-12T02:18:40.750Z,16.95
2017-03-12T02:19:21.229Z,16.95
2017-03-12T02:20:01.712Z,16.85
2017-03-12T02:20:42.204Z,16.95
2017-03-12T02:21:22.696Z,16.95
2017-03-12T02:22:03.206Z,16.95
2017-03-12T02:22:43.681Z,16.85
2017-03-12T02:23:24.179Z,16.95
2017-03-12T02:24:04.847Z,16.95
2017-03-12T02:24:45.330Z,16.85
2017-03-12T02:25:25.826Z,16.95
2017-03-12T02:26:06.311Z,16.75
2017-03-12T02:26:46.819Z,16.85
2017-03-12T02:27:27.299Z,17.05
2017-03-12T02:28:07.805Z,16.95
2017-03-12T02:28:48.297Z,16.95
2017-03-12T02:29:28.791Z,17.05
2017-03-12T02:30:09.297Z,16.85
2017-03-12T02:30:49.790Z,16.95
2017-03-12T02:31:30.290Z,17.05
2017-03-12T02:32:10.766Z,16.95
2017-03-12T02:32:51.267Z,16.95
2017-03-12T02:33:31.747Z,16.95
2017-03-12T02:34:12.234Z,16.95
2017-03-12T02:34:52.711Z,16.95
2017-03-12T02:35:33.189Z,16.95
2017-03-12T02:36:13.681Z,16.85
2017-03-12T02:36:54.164Z,16.95
2017-03-12T02:37:34.654Z,16.95
2017-03-12T02:38:15.151Z,16.85
2017-03-12T02:38:55.635Z,17.05
2017-03-12T02:39:36.125Z,16.85
2017-03-12T02:40:16.615Z,16.85
2017-03-12T02:40:57.087Z,16.95
2017-03-12T02:41:37.590Z,16.95
2017-03-12T02:42:18.094Z,16.95
2017-03-12T02:42:58.589Z,16.85
2017-03-12T02:43:39.076Z,16.85
2017-03-12T02:44:19.572Z,16.95
2017-03-12T02:45:00.066Z,16.95
2017-03-12T02:45:40.548Z,16.95
2017-03-12T02:46:21.049Z,16.95
2017-03-12T02:47:01.570Z,16.75
2017-03-12T02:47:42.046Z,16.85
2017-03-12T02:48:22.549Z,16.95
2017-03-12T02:49:03.050Z,16.95
2017-03-12T02:49:43.538Z,16.75
2017-03-12T02:50:24.029Z,16.75
2017-03-12T02:51:04.523Z,16.85
2017-03-12T02:51:45.015Z,16.75
2017-03-12T02:52:25.511Z,16.75
2017-03-12T02:53:06.017Z,16.66
2017-03-12T02:53:46.521Z,16.66
2017-03-12T02:54:27.022Z,16.75
2017-03-12T02:55:07.512Z,16.66
2017-03-12T02:55:48.010Z,16.95
2017-03-12T02:56:28.512Z,16.75
2017-03-12T02:57:09.002Z,16.85
2017-03-12T02:57:49.483Z,16.95
2017-03-12T02:58:29.971Z,16.85
2017-03-12T02:59:10.445Z,16.66
2017-03-12T02:59:50.938Z,16.75
2017-03-12T03:00:31.417Z,16.75
2017-03-12T03:01:11.917Z,16.66
2017-03-12T03:01:52.410Z,16.85
2017-03-12T03:02:32.916Z,16.85
2017-03-12T03:03:13.407Z,16.85
2017-03-12T03:03:53.914Z,16.75
2017-03-12T03:04:34.405Z,16.95
2017-03-12T03:05:14.905Z,16.66
2017-03-12T03:05:55.405Z,16.66
2017-03-12T03:06:35.899Z,16.75
2017-03-12T03:07:16.397Z,16.66
2017-03-12T03:07:56.884Z,16.85
2017-03-12T03:08:37.379Z,16.66
2017-03-12T03:09:17.870Z,16.66
2017-03-12T03:09:58.705Z,16.66
2017-03-12T03:10:39.205Z,16.85
2017-03-12T03:11:19.706Z,16.85
2017-03-12T03:12:00.209Z,16.75
2017-03-12T03:12:40.701Z,16.75
2017-03-12T03:13:21.212Z,16.85
2017-03-12T03:14:01.706Z,16.85
2017-03-12T03:14:42.201Z,16.75
2017-03-12T03:15:22.694Z,16.85
2017-03-12T03:16:03.177Z,16.85
2017-03-12T03:16:43.664Z,16.85
2017-03-12T03:17:24.150Z,16.85
2017-03-12T03:18:04.662Z,16.75
2017-03-12T03:18:45.147Z,16.75
2017-03-12T03:19:25.644Z,16.75
2017-03-12T03:20:06.126Z,16.75
2017-03-12T03:20:46.616Z,16.75
2017-03-12T03:21:27.105Z,16.85
2017-03-12T03:22:07.590Z,16.85
2017-03-12T03:22:48.101Z,16.65
2017-03-12T03:23:28.592Z,16.65
2017-03-12T03:24:09.110Z,16.85
2017-03-12T03:24:49.812Z,16.85
2017-03-12T03:25:30.305Z,16.66
2017-03-12T03:26:10.797Z,16.85
2017-03-12T03:26:51.290Z,16.85
2017-03-12T03:27:31.791Z,16.85
2017-03-12T03:29:44.599Z,16.85
2017-03-12T03:30:25.454Z,16.85
2017-03-12T03:31:05.918Z,16.85
2017-03-12T03:31:46.426Z,16.75
2017-03-12T03:32:26.912Z,16.95
2017-03-12T03:33:07.405Z,16.75
2017-03-12T03:33:47.890Z,16.75
2017-03-12T03:34:28.394Z,16.85
2017-03-12T03:35:08.876Z,16.85
2017-03-12T03:35:49.360Z,16.85
2017-03-12T03:36:29.873Z,16.75
2017-03-12T03:37:10.358Z,16.85
2017-03-12T03:37:50.851Z,16.85
2017-03-12T03:38:31.326Z,16.66
2017-03-12T03:39:11.801Z,16.56
2017-03-12T03:39:52.313Z,16.75
2017-03-12T03:40:32.801Z,16.75
2017-03-12T03:41:13.298Z,16.66
2017-03-12T03:41:54.688Z,16.56
2017-03-12T03:42:35.172Z,16.56
2017-03-12T03:43:15.668Z,16.66
2017-03-12T03:43:56.181Z,16.56
2017-03-12T03:44:36.619Z,16.47
2017-03-12T03:45:17.128Z,16.65
2017-03-12T03:45:57.632Z,16.66
2017-03-12T03:46:38.127Z,16.47
2017-03-12T03:47:18.614Z,16.56
2017-03-12T03:47:59.079Z,16.56
2017-03-12T03:48:39.593Z,16.56
2017-03-12T03:49:20.071Z,16.56
2017-03-12T03:50:00.565Z,16.56
2017-03-12T03:50:41.056Z,16.56
2017-03-12T03:51:21.531Z,16.66
2017-03-12T03:52:02.037Z,16.56
2017-03-12T03:52:42.511Z,16.65
2017-03-12T03:53:23.025Z,16.56
2017-03-12T03:54:03.522Z,16.56
2017-03-12T03:54:44.015Z,16.56
2017-03-12T03:55:24.506Z,16.65
2017-03-12T03:56:05.014Z,16.66
2017-03-12T03:56:45.532Z,16.66
2017-03-12T03:57:26.017Z,16.56
2017-03-12T03:58:06.544Z,16.66
2017-03-12T03:58:47.044Z,16.66
2017-03-12T03:59:27.511Z,16.66
2017-03-12T04:00:08.022Z,16.85
2017-03-12T04:00:48.736Z,16.66
2017-03-12T04:01:29.223Z,16.85
2017-03-12T04:02:09.710Z,16.65
2017-03-12T04:02:50.226Z,16.65
2017-03-12T04:03:30.706Z,16.66
2017-03-12T04:04:11.195Z,16.66
2017-03-12T04:04:51.696Z,16.75
2017-03-12T04:05:32.147Z,16.56
2017-03-12T04:06:12.662Z,16.56
2017-03-12T04:06:53.151Z,16.65
2017-03-12T04:07:33.646Z,16.85
2017-03-12T04:08:14.127Z,16.75
2017-03-12T04:08:54.608Z,16.75
2017-03-12T04:09:35.106Z,16.85
2017-03-12T04:10:15.606Z,16.56
2017-03-12T04:10:56.097Z,16.75
2017-03-12T04:11:36.592Z,16.75
2017-03-12T04:12:17.112Z,16.85
2017-03-12T04:12:57.593Z,16.65
2017-03-12T04:13:38.107Z,16.65
2017-03-12T04:14:18.594Z,16.66
2017-03-12T04:14:59.108Z,16.85
2017-03-12T04:15:39.594Z,16.56
2017-03-12T04:16:20.094Z,16.85
2017-03-12T04:17:00.588Z,16.85
2017-03-12T04:17:41.097Z,16.85
2017-03-12T04:18:21.587Z,16.75
2017-03-12T04:19:02.093Z,16.85
2017-03-12T04:19:42.565Z,16.85
2017-03-12T04:20:23.058Z,16.56
2017-03-12T04:21:03.544Z,16.56
2017-03-12T04:21:44.029Z,16.56
2017-03-12T04:22:24.514Z,16.56
2017-03-12T04:23:05.007Z,16.75
2017-03-12T04:23:45.494Z,16.56
2017-03-12T04:24:25.995Z,16.75
2017-03-12T04:25:06.481Z,16.56
2017-03-12T04:25:46.972Z,16.85
2017-03-12T04:26:27.453Z,16.28
2017-03-12T04:27:07.937Z,16.56
2017-03-12T04:27:48.447Z,16.36
2017-03-12T04:28:28.929Z,16.36
2017-03-12T04:29:09.422Z,16.56
2017-03-12T04:29:49.926Z,16.36
2017-03-12T04:30:30.431Z,16.37
2017-03-12T04:31:10.917Z,16.37
2017-03-12T04:31:51.430Z,16.37
2017-03-12T04:32:31.922Z,16.36
2017-03-12T04:33:12.436Z,16.56
2017-03-12T04:33:52.919Z,16.56
2017-03-12T04:34:33.435Z,16.36
2017-03-12T04:35:13.914Z,16.36
2017-03-12T04:35:54.427Z,16.27
2017-03-12T04:36:34.913Z,16.17
2017-03-12T04:37:15.408Z,16.46
2017-03-12T04:37:55.893Z,16.28
2017-03-12T04:38:36.385Z,16.36
2017-03-12T04:39:16.875Z,16.36
2017-03-12T04:39:57.363Z,16.46
2017-03-12T04:40:37.856Z,16.37
2017-03-12T04:41:18.338Z,16.46
2017-03-12T04:41:58.826Z,16.56
2017-03-12T04:42:39.338Z,16.46
2017-03-12T04:43:19.815Z,16.27
2017-03-12T04:44:00.303Z,16.36
2017-03-12T04:44:40.784Z,16.36
2017-03-12T04:45:21.267Z,16.36
2017-03-12T04:46:01.765Z,16.36
2017-03-12T04:46:42.247Z,16.47
2017-03-12T04:47:22.717Z,16.46
2017-03-12T04:48:03.211Z,16.47
2017-03-12T04:48:43.702Z,16.28
2017-03-12T04:49:24.201Z,16.37
2017-03-12T04:50:04.695Z,16.37
2017-03-12T04:50:45.216Z,16.28
2017-03-12T04:51:25.705Z,16.28
2017-03-12T04:52:06.192Z,16.28
2017-03-12T04:52:46.699Z,16.27
2017-03-12T04:53:27.207Z,16.56
2017-03-12T04:54:07.695Z,16.56
2017-03-12T04:54:48.189Z,16.27
2017-03-12T04:55:28.657Z,16.17
2017-03-12T04:56:09.159Z,16.28
2017-03-12T04:56:49.696Z,16.37
2017-03-12T04:57:30.204Z,16.56
2017-03-12T04:58:10.691Z,16.56
2017-03-12T04:58:51.184Z,16.56
2017-03-12T04:59:31.661Z,16.56
2017-03-12T05:00:12.135Z,16.28
2017-03-12T05:00:52.648Z,16.37
2017-03-12T05:01:33.136Z,16.56
2017-03-12T05:02:13.632Z,16.36
2017-03-12T05:02:54.127Z,16.56
2017-03-12T05:03:34.606Z,16.56
2017-03-12T05:04:15.107Z,16.27
2017-03-12T05:04:55.598Z,16.28
2017-03-12T05:05:36.089Z,16.27
2017-03-12T05:06:16.578Z,16.36
2017-03-12T05:06:57.061Z,16.36
2017-03-12T05:07:37.545Z,16.56
2017-03-12T05:08:18.027Z,16.47
2017-03-12T05:08:58.541Z,16.36
2017-03-12T05:09:39.029Z,16.46
2017-03-12T05:10:19.543Z,16.47
2017-03-12T05:11:00.027Z,16.27
2017-03-12T05:11:40.523Z,16.47
2017-03-12T05:12:21.030Z,16.46
2017-03-12T05:13:01.532Z,16.56
2017-03-12T05:13:42.029Z,16.36
2017-03-12T05:14:22.529Z,16.36
2017-03-12T05:15:03.019Z,16.36
2017-03-12T05:15:43.517Z,16.36
2017-03-12T05:16:23.996Z,16.37
2017-03-12T05:17:04.499Z,16.36
2017-03-12T05:17:44.990Z,16.36
2017-03-12T05:18:25.471Z,16.27
2017-03-12T05:19:05.957Z,16.36
2017-03-12T05:19:46.467Z,16.36
2017-03-12T05:20:26.967Z,16.36
2017-03-12T05:21:07.461Z,16.37
2017-03-12T05:21:47.951Z,16.28
2017-03-12T05:22:28.432Z,16.46
2017-03-12T05:23:08.914Z,16.36
2017-03-12T05:23:49.407Z,16.46
2017-03-12T05:24:29.900Z,16.37
2017-03-12T05:25:10.406Z,16.37
2017-03-12T05:25:50.886Z,16.56
2017-03-12T05:26:31.371Z,16.28
2017-03-12T05:27:11.874Z,16.46
2017-03-12T05:27:52.359Z,16.47
2017-03-12T05:28:32.855Z,16.56
2017-03-12T05:29:14.124Z,16.56
2017-03-12T05:29:54.623Z,16.47
2017-03-12T05:30:35.092Z,16.46
2017-03-12T05:31:15.612Z,16.56
2017-03-12T05:31:56.099Z,16.46
2017-03-12T05:32:36.587Z,16.56
2017-03-12T05:33:17.070Z,16.65
2017-03-12T05:33:57.562Z,16.56
2017-03-12T05:34:38.713Z,16.47
2017-03-12T05:35:19.223Z,16.27
2017-03-12T05:35:59.709Z,16.18
2017-03-12T05:36:40.206Z,16.27
2017-03-12T05:37:20.683Z,16.18
2017-03-12T05:38:01.172Z,16.17
2017-03-12T05:38:41.656Z,16.28
2017-03-12T05:39:22.146Z,16.36
2017-03-12T05:40:02.657Z,16.36
2017-03-12T05:40:43.148Z,16.36
2017-03-12T05:41:23.633Z,15.99
2017-03-12T05:42:04.121Z,15.99
2017-03-12T05:42:44.900Z,16.36
2017-03-12T05:43:25.391Z,15.89
2017-03-12T05:44:05.874Z,15.98
2017-03-12T05:44:46.398Z,15.98
2017-03-12T05:45:26.878Z,16.28
2017-03-12T05:46:07.373Z,15.99
2017-03-12T05:46:47.874Z,15.89
2017-03-12T05:47:28.374Z,15.89
2017-03-12T05:48:08.876Z,15.98
2017-03-12T05:48:49.382Z,15.98
2017-03-12T05:49:29.867Z,15.98
2017-03-12T05:50:10.355Z,15.98
2017-03-12T05:50:50.843Z,16.08
2017-03-12T05:51:31.324Z,16.18
2017-03-12T05:52:11.820Z,16.08
2017-03-12T05:52:52.299Z,16.18
2017-03-12T05:53:32.789Z,16.18
2017-03-12T05:54:13.280Z,16.18
2017-03-12T05:54:53.766Z,16.17
2017-03-12T05:55:34.273Z,16.18
2017-03-12T05:56:14.758Z,16.08
2017-03-12T05:56:55.245Z,15.98
2017-03-12T05:57:36.351Z,16.08
2017-03-12T05:58:16.688Z,16.17
2017-03-12T05:58:57.171Z,15.98
2017-03-12T05:59:37.679Z,16.17
2017-03-12T06:00:18.166Z,16.17
2017-03-12T06:00:58.689Z,16.18
2017-03-12T06:01:39.171Z,16.08
2017-03-12T06:02:19.681Z,16.27
2017-03-12T06:03:00.168Z,15.99
2017-03-12T06:03:40.649Z,16.28
2017-03-12T06:04:21.138Z,16.37
2017-03-12T06:05:01.619Z,16.28
2017-03-12T06:05:42.110Z,16.28
2017-03-12T06:06:22.589Z,16.27
2017-03-12T06:07:03.080Z,16.36
2017-03-12T06:07:43.637Z,16.27
2017-03-12T06:08:24.071Z,16.27
2017-03-12T06:09:04.569Z,16.17
2017-03-12T06:09:45.058Z,16.17
2017-03-12T06:10:25.552Z,16.08
2017-03-12T06:11:06.034Z,16.08
2017-03-12T06:11:46.507Z,16.36
2017-03-12T06:12:27.015Z,15.98
2017-03-12T06:13:07.498Z,16.17
2017-03-12T06:13:47.987Z,16.08
2017-03-12T06:14:28.474Z,16.08
2017-03-12T06:15:08.956Z,16.08
2017-03-12T06:15:49.450Z,16.08
2017-03-12T06:16:29.948Z,16.27
2017-03-12T06:17:10.411Z,16.08
2017-03-12T06:17:50.914Z,16.27
2017-03-12T06:18:31.401Z,15.99
2017-03-12T06:19:11.909Z,15.98
2017-03-12T06:19:52.418Z,15.99
2017-03-12T06:20:32.941Z,15.98
2017-03-12T06:21:13.404Z,15.98
2017-03-12T06:21:53.902Z,16.08
2017-03-12T06:22:34.394Z,16.08
2017-03-12T06:23:14.890Z,15.99
2017-03-12T06:23:55.415Z,16.28
2017-03-12T06:24:35.905Z,16.08
2017-03-12T06:25:16.399Z,16.18
2017-03-12T06:25:56.887Z,15.99
2017-03-12T06:26:37.389Z,15.98
2017-03-12T06:27:17.900Z,15.99
2017-03-12T06:27:58.388Z,16.18
2017-03-12T06:28:39.655Z,16.28
2017-03-12T06:29:20.159Z,16.17
2017-03-12T06:30:00.658Z,15.98
2017-03-12T06:30:41.164Z,15.98
2017-03-12T06:31:21.657Z,16.08
2017-03-12T06:32:02.138Z,16.08
2017-03-12T06:32:42.612Z,16.28
2017-03-12T06:33:23.111Z,16.18
2017-03-12T06:34:03.612Z,16.08
2017-03-12T06:34:44.101Z,15.99
2017-03-12T06:35:24.596Z,15.99
2017-03-12T06:36:05.091Z,15.99
2017-03-12T06:36:45.579Z,16.28
2017-03-12T06:37:26.061Z,15.89
2017-03-12T06:38:06.551Z,15.99
2017-03-12T06:38:47.054Z,16.08
2017-03-12T06:39:27.541Z,15.88
2017-03-12T06:40:08.040Z,16.08
2017-03-12T06:40:48.521Z,15.98
2017-03-12T06:41:29.003Z,16.08
2017-03-12T06:42:09.536Z,15.98
2017-03-12T06:42:50.017Z,15.99
2017-03-12T06:43:31.030Z,16.27
2017-03-12T06:44:11.518Z,16.27
2017-03-12T06:44:52.011Z,16.08
2017-03-12T06:45:32.496Z,15.99
2017-03-12T06:46:13.016Z,16.18
2017-03-12T06:46:53.505Z,16.28
2017-03-12T06:47:33.999Z,16.18
2017-03-12T06:48:14.488Z,16.08
2017-03-12T06:48:54.975Z,15.89
2017-03-12T06:49:35.475Z,15.89
2017-03-12T06:50:15.960Z,15.99
2017-03-12T06:50:56.453Z,16.08
2017-03-12T06:51:36.947Z,15.99
2017-03-12T06:52:17.493Z,16.08
2017-03-12T06:52:57.994Z,15.99
2017-03-12T06:53:38.852Z,15.99
2017-03-12T06:54:19.338Z,16.08
2017-03-12T06:54:59.835Z,15.99
2017-03-12T06:55:40.312Z,15.89
2017-03-12T06:56:20.868Z,15.99
2017-03-12T06:57:01.366Z,16.18
2017-03-12T06:57:41.871Z,16.08
2017-03-12T06:58:22.379Z,15.99
2017-03-12T06:59:02.864Z,16.08
2017-03-12T06:59:43.341Z,15.8
2017-03-12T07:00:23.842Z,15.8
2017-03-12T07:01:04.322Z,15.89
2017-03-12T07:01:44.824Z,15.89
2017-03-12T07:02:25.311Z,15.8
2017-03-12T07:03:05.793Z,15.99
2017-03-12T07:03:46.309Z,15.89
2017-03-12T07:04:26.790Z,15.8
2017-03-12T07:05:07.304Z,15.89
2017-03-12T07:05:47.768Z,15.8
2017-03-12T07:06:28.257Z,15.99
2017-03-12T07:07:09.247Z,15.99
2017-03-12T07:07:49.742Z,15.8
2017-03-12T07:08:30.212Z,15.89
2017-03-12T07:09:10.710Z,15.99
2017-03-12T07:09:51.200Z,15.99
2017-03-12T07:10:31.700Z,15.99
2017-03-12T07:11:12.191Z,15.89
2017-03-12T07:11:52.711Z,16.08
2017-03-12T07:12:33.183Z,15.89
2017-03-12T07:13:13.691Z,15.99
2017-03-12T07:13:54.153Z,15.99
2017-03-12T07:14:34.639Z,15.99
2017-03-12T07:15:15.154Z,16.08
2017-03-12T07:15:55.638Z,16.08
2017-03-12T07:16:36.144Z,15.99
2017-03-12T07:17:16.638Z,15.99
2017-03-12T07:17:57.130Z,15.99
2017-03-12T07:18:37.637Z,15.99
2017-03-12T07:19:18.130Z,15.6
2017-03-12T07:19:58.634Z,15.99
2017-03-12T07:20:39.144Z,15.89
2017-03-12T07:21:19.628Z,15.99
2017-03-12T07:22:00.152Z,15.99
2017-03-12T07:22:40.686Z,15.99
2017-03-12T07:23:21.188Z,15.99
2017-03-12T07:24:01.684Z,15.89
2017-03-12T07:24:43.252Z,15.7
2017-03-12T07:25:23.749Z,15.89
2017-03-12T07:26:04.256Z,15.99
2017-03-12T07:26:44.732Z,15.8
2017-03-12T07:27:25.225Z,15.89
2017-03-12T07:28:05.761Z,15.8
2017-03-12T07:28:46.253Z,15.8
2017-03-12T07:29:26.747Z,15.5
2017-03-12T07:30:07.210Z,15.8
2017-03-12T07:30:47.709Z,15.7
2017-03-12T07:31:28.198Z,15.6
2017-03-12T07:32:08.710Z,15.99
2017-03-12T07:32:49.194Z,15.8
2017-03-12T07:33:29.709Z,15.89
2017-03-12T07:34:10.199Z,15.99
2017-03-12T07:34:50.709Z,15.89
2017-03-12T07:35:31.203Z,15.89
2017-03-12T07:36:11.676Z,15.8
2017-03-12T07:36:52.163Z,15.6
2017-03-12T07:37:32.645Z,15.6
2017-03-12T07:38:13.128Z,15.6
2017-03-12T07:38:53.618Z,15.7
2017-03-12T07:39:34.477Z,15.6
2017-03-12T07:40:14.952Z,15.7
2017-03-12T07:40:55.472Z,15.6
2017-03-12T07:41:35.945Z,15.5
2017-03-12T07:42:16.498Z,15.41
2017-03-12T07:42:56.995Z,15.41
2017-03-12T07:43:37.497Z,15.5
2017-03-12T07:44:17.992Z,15.5
2017-03-12T07:44:58.469Z,15.7
2017-03-12T07:45:38.946Z,15.6
2017-03-12T07:46:19.438Z,15.7
2017-03-12T07:46:59.940Z,15.5
2017-03-12T07:47:40.452Z,15.7
2017-03-12T07:48:20.939Z,15.7
2017-03-12T07:49:01.431Z,15.5
2017-03-12T07:49:41.917Z,15.6
2017-03-12T07:50:22.397Z,15.6
2017-03-12T07:51:03.859Z,15.6
2017-03-12T07:51:44.340Z,15.6
2017-03-12T07:52:24.824Z,15.7
2017-03-12T07:53:05.306Z,15.7
2017-03-12T07:53:45.801Z,15.7
2017-03-12T07:54:26.278Z,15.7
2017-03-12T07:55:06.959Z,15.7
2017-03-12T07:55:47.465Z,15.8
2017-03-12T07:56:27.985Z,15.7
2017-03-12T07:57:08.449Z,15.7
2017-03-12T07:57:48.949Z,15.7
2017-03-12T07:58:29.425Z,15.7
2017-03-12T07:59:09.931Z,15.41
2017-03-12T07:59:50.418Z,15.41
2017-03-12T08:00:30.930Z,15.6
2017-03-12T08:01:11.441Z,15.6
2017-03-12T08:01:51.928Z,15.41
2017-03-12T08:02:32.411Z,15.6
2017-03-12T08:03:12.911Z,15.5
2017-03-12T08:03:53.393Z,15.42
2017-03-12T08:04:33.907Z,15.22
2017-03-12T08:05:14.395Z,15.41
2017-03-12T08:05:54.890Z,15.22
2017-03-12T08:06:35.440Z,15.22
2017-03-12T08:07:15.935Z,15.22
2017-03-12T08:07:56.418Z,15.22
2017-03-12T08:08:36.915Z,15.22
2017-03-12T08:09:17.407Z,15.32
2017-03-12T08:09:57.906Z,15.32
2017-03-12T08:10:38.407Z,15.32
2017-03-12T08:11:18.900Z,15.22
2017-03-12T08:11:59.382Z,15.42
2017-03-12T08:12:39.858Z,15.52
2017-03-12T08:13:20.351Z,15.12
2017-03-12T08:14:00.838Z,15.32
2017-03-12T08:14:41.331Z,15.42
2017-03-12T08:15:21.814Z,15.32
2017-03-12T08:16:02.306Z,15.32
2017-03-12T08:16:42.805Z,15.32
2017-03-12T08:17:23.287Z,15.12
2017-03-12T08:18:03.777Z,15.22
2017-03-12T08:18:44.872Z,15.22
2017-03-12T08:19:25.377Z,15.22
2017-03-12T08:20:05.839Z,15.52
2017-03-12T08:20:46.337Z,15.32
2017-03-12T08:21:26.857Z,15.12
2017-03-12T08:22:07.342Z,15.22
2017-03-12T08:22:47.852Z,15.03
2017-03-12T08:23:28.351Z,15.03
2017-03-12T08:24:08.848Z,15.03
2017-03-12T08:24:49.344Z,15.12
2017-03-12T08:25:29.848Z,14.94
2017-03-12T08:26:10.332Z,14.94
2017-03-12T08:26:50.843Z,14.84
2017-03-12T08:27:31.335Z,14.74
2017-03-12T08:28:11.831Z,14.94
2017-03-12T08:28:52.328Z,14.84
2017-03-12T08:29:32.815Z,15.12
2017-03-12T08:30:13.296Z,15.14
2017-03-12T08:30:54.288Z,15.12
2017-03-12T08:31:34.792Z,15.12
2017-03-12T08:32:15.272Z,15.14
2017-03-12T08:32:55.763Z,14.94
2017-03-12T08:33:36.284Z,15.03
2017-03-12T08:34:16.761Z,14.84
2017-03-12T08:34:57.239Z,15.14
2017-03-12T08:35:37.737Z,14.84
2017-03-12T08:36:18.250Z,14.84
2017-03-12T08:36:58.763Z,14.94
2017-03-12T08:37:39.250Z,14.94
2017-03-12T08:38:19.736Z,14.84
2017-03-12T08:39:00.254Z,14.84
2017-03-12T08:39:40.735Z,14.84
2017-03-12T08:40:21.244Z,14.75
2017-03-12T08:41:01.734Z,14.65
2017-03-12T08:41:42.223Z,14.56
2017-03-12T08:42:22.706Z,14.56
2017-03-12T08:43:03.204Z,14.56
2017-03-12T08:43:43.695Z,14.65
2017-03-12T08:44:24.187Z,14.65